createdAt,value
2022-09-27T00:01:10.499Z,11.68
2022-09-27T00:03:40.598Z,11.61
2022-09-27T00:06:30.099Z,11.51
2022-09-27T00:08:59.640Z,11.52
2022-09-27T00:11:39.926Z,11.50
2022-09-27T00:14:08.806Z,11.50
2022-09-27T00:16:39.336Z,11.43
2022-09-27T00:19:12.013Z,11.43
2022-09-27T00:21:40.200Z,11.42
2022-09-27T00:24:07.642Z,11.41
2022-09-27T00:26:34.919Z,11.37
2022-09-27T00:29:02.393Z,11.35
2022-09-27T00:31:31.687Z,11.39
2022-09-27T00:34:03.725Z,11.36
2022-09-27T00:36:33.413Z,11.33
2022-09-27T00:39:01.866Z,11.28
2022-09-27T00:41:33.810Z,11.24
2022-09-27T00:44:25.624Z,11.19
2022-09-27T00:47:08.201Z,11.14
2022-09-27T00:50:00.615Z,11.08
2022-09-27T00:53:20.220Z,11.13
2022-09-27T00:56:02.446Z,11.03
2022-09-27T00:58:37.175Z,11.02
2022-09-27T01:01:10.745Z,11.00
2022-09-27T01:04:02.042Z,10.96
2022-09-27T01:06:30.092Z,10.98
2022-09-27T01:08:57.309Z,11.01
2022-09-27T01:11:49.593Z,10.99
2022-09-27T01:14:41.622Z,10.98
2022-09-27T01:17:59.574Z,10.98
2022-09-27T01:21:03.179Z,10.95
2022-09-27T01:23:52.306Z,10.98
2022-09-27T01:26:47.766Z,10.95
2022-09-27T01:29:38.131Z,10.92
2022-09-27T01:32:27.694Z,10.89
2022-09-27T01:35:19.867Z,10.91
2022-09-27T01:38:17.827Z,10.87
2022-09-27T01:40:54.303Z,10.91
2022-09-27T01:43:35.178Z,10.90
2022-09-27T01:46:15.402Z,10.91
2022-09-27T01:48:48.594Z,10.86
2022-09-27T01:51:42.785Z,10.85
2022-09-27T01:54:19.162Z,10.83
2022-09-27T01:56:55.281Z,10.77
2022-09-27T01:59:31.901Z,10.72
2022-09-27T02:02:07.404Z,10.71
2022-09-27T02:04:40.916Z,10.69
2022-09-27T02:07:20.539Z,10.69
2022-09-27T02:10:02.247Z,10.66
2022-09-27T02:12:40.089Z,10.63
2022-09-27T02:15:12.642Z,10.60
2022-09-27T02:17:58.438Z,10.61
2022-09-27T02:20:38.233Z,10.60
2022-09-27T02:23:34.064Z,10.58
2022-09-27T02:26:20.506Z,10.58
2022-09-27T02:29:12.956Z,10.55
2022-09-27T02:31:40.718Z,10.55
2022-09-27T02:34:17.290Z,10.52
2022-09-27T02:36:45.053Z,10.56
2022-09-27T02:39:12.517Z,10.55
2022-09-27T02:41:39.766Z,10.52
2022-09-27T02:44:13.718Z,10.48
2022-09-27T02:47:13.416Z,10.44
2022-09-27T02:50:17.188Z,10.38
2022-09-27T02:52:58.591Z,10.34
2022-09-27T02:56:07.276Z,10.33
2022-09-27T02:59:17.990Z,10.27
2022-09-27T03:02:26.715Z,10.25
2022-09-27T03:05:02.930Z,10.26
2022-09-27T03:07:31.011Z,10.26
2022-09-27T03:09:58.575Z,10.26
2022-09-27T03:12:26.372Z,10.22
2022-09-27T03:14:58.627Z,10.25
2022-09-27T03:17:26.703Z,10.24
2022-09-27T03:19:55.358Z,10.27
2022-09-27T03:22:22.750Z,10.28
2022-09-27T03:24:49.991Z,10.33
2022-09-27T03:27:17.309Z,10.33
2022-09-27T03:29:44.830Z,10.35
2022-09-27T03:32:12.047Z,10.31
2022-09-27T03:34:39.308Z,10.31
2022-09-27T03:37:07.214Z,10.33
2022-09-27T03:39:34.947Z,10.32
2022-09-27T03:42:02.243Z,10.32
2022-09-27T03:44:29.703Z,10.26
2022-09-27T03:46:57.451Z,10.17
2022-09-27T03:49:24.880Z,10.13
2022-09-27T03:51:52.339Z,10.14
2022-09-27T03:54:19.556Z,10.13
2022-09-27T03:56:46.773Z,10.06
2022-09-27T03:59:14.880Z,10.06
2022-09-27T04:01:44.697Z,10.04
2022-09-27T04:04:11.991Z,10.07
2022-09-27T04:06:39.659Z,10.08
2022-09-27T04:09:06.879Z,10.04
2022-09-27T04:11:36.751Z,10.08
2022-09-27T04:14:05.752Z,10.08
2022-09-27T04:16:33.960Z,10.10
2022-09-27T04:19:02.326Z,10.11
2022-09-27T04:21:30.108Z,10.16
2022-09-27T04:23:57.420Z,10.11
2022-09-27T04:26:26.351Z,10.13
2022-09-27T04:28:54.886Z,10.10
2022-09-27T04:31:22.786Z,10.11
2022-09-27T04:33:50.105Z,10.07
2022-09-27T04:36:29.483Z,10.11
2022-09-27T04:39:02.579Z,10.09
2022-09-27T04:41:30.859Z,9.98
2022-09-27T04:44:01.291Z,9.98
2022-09-27T04:46:31.816Z,10.04
2022-09-27T04:49:03.109Z,10.05
2022-09-27T04:51:30.399Z,10.07
2022-09-27T04:53:58.338Z,10.13
2022-09-27T04:56:26.382Z,10.24
2022-09-27T04:58:54.065Z,10.30
2022-09-27T05:01:21.663Z,10.41
2022-09-27T05:03:49.382Z,10.47
2022-09-27T05:06:16.576Z,10.54
2022-09-27T05:08:43.726Z,10.67
2022-09-27T05:11:14.161Z,10.79
2022-09-27T05:13:41.326Z,10.89
2022-09-27T05:16:08.793Z,10.98
2022-09-27T05:18:37.252Z,11.09
2022-09-27T05:21:04.609Z,11.12
2022-09-27T05:23:31.904Z,11.21
2022-09-27T05:26:04.651Z,11.30
2022-09-27T05:28:32.411Z,11.39
2022-09-27T05:30:59.668Z,11.46
2022-09-27T05:33:27.895Z,11.55
2022-09-27T05:35:57.736Z,11.69
2022-09-27T05:38:26.232Z,11.78
2022-09-27T05:40:53.831Z,11.88
2022-09-27T05:43:21.741Z,11.92
2022-09-27T05:45:49.198Z,12.05
2022-09-27T05:48:16.985Z,12.14
2022-09-27T05:50:44.897Z,12.27
2022-09-27T05:53:13.608Z,12.39
2022-09-27T05:55:41.011Z,12.48
2022-09-27T05:58:11.480Z,12.62
2022-09-27T06:00:39.426Z,12.65
2022-09-27T06:03:08.037Z,12.71
2022-09-27T06:05:38.546Z,12.83
2022-09-27T06:08:13.203Z,12.95
2022-09-27T06:10:41.834Z,12.95
2022-09-27T06:13:14.244Z,13.05
2022-09-27T06:15:45.402Z,13.07
2022-09-27T06:18:18.739Z,13.14
2022-09-27T06:20:46.326Z,13.27
2022-09-27T06:23:23.679Z,13.37
2022-09-27T06:25:53.251Z,13.47
2022-09-27T06:28:22.136Z,13.47
2022-09-27T06:30:50.847Z,13.55
2022-09-27T06:33:20.700Z,13.65
2022-09-27T06:35:50.113Z,13.84
2022-09-27T06:38:18.788Z,14.02
2022-09-27T06:40:47.120Z,14.18
2022-09-27T06:43:17.601Z,14.38
2022-09-27T06:45:44.927Z,14.55
2022-09-27T06:48:16.157Z,14.62
2022-09-27T06:50:46.020Z,14.81
2022-09-27T06:53:17.076Z,14.96
2022-09-27T06:55:44.476Z,15.08
2022-09-27T06:58:31.073Z,15.17
2022-09-27T07:00:58.971Z,15.38
2022-09-27T07:03:38.883Z,15.65
2022-09-27T07:06:17.731Z,15.89
2022-09-27T07:08:45.070Z,16.37
2022-09-27T07:11:12.480Z,16.85
2022-09-27T07:13:42.993Z,17.36
2022-09-27T07:16:14.756Z,17.87
2022-09-27T07:18:43.510Z,19.31
2022-09-27T07:21:12.697Z,20.88
2022-09-27T07:23:40.190Z,21.83
2022-09-27T07:26:10.549Z,22.68
2022-09-27T07:28:38.052Z,22.73
2022-09-27T07:31:06.802Z,22.57
2022-09-27T07:33:34.814Z,22.89
2022-09-27T07:36:09.326Z,23.01
2022-09-27T07:38:37.502Z,23.71
2022-09-27T07:41:13.361Z,24.22
2022-09-27T07:43:45.150Z,25.42
2022-09-27T07:46:13.723Z,26.42
2022-09-27T07:48:41.377Z,27.08
2022-09-27T07:51:15.667Z,27.57
2022-09-27T07:53:43.024Z,27.62
2022-09-27T07:56:10.437Z,28.54
2022-09-27T07:58:37.700Z,29.42
2022-09-27T08:01:04.966Z,30.13
2022-09-27T08:03:32.584Z,31.53
2022-09-27T08:06:04.448Z,32.23
2022-09-27T08:08:32.138Z,32.51
2022-09-27T08:10:59.523Z,32.91
2022-09-27T08:13:26.783Z,32.22
2022-09-27T08:15:54.033Z,31.30
2022-09-27T08:18:22.258Z,30.90
2022-09-27T08:20:49.506Z,30.34
2022-09-27T08:23:16.888Z,30.04
2022-09-27T08:25:44.528Z,28.67
2022-09-27T08:28:11.833Z,27.50
2022-09-27T08:30:39.247Z,26.35
2022-09-27T08:33:06.883Z,25.55
2022-09-27T08:35:34.305Z,24.75
2022-09-27T08:38:05.119Z,24.24
2022-09-27T08:40:43.762Z,24.21
2022-09-27T08:43:38.074Z,23.58
2022-09-27T08:46:33.237Z,22.96
2022-09-27T08:49:13.700Z,22.86
2022-09-27T08:51:46.425Z,22.28
2022-09-27T08:54:30.238Z,22.32
2022-09-27T08:57:12.813Z,22.85
2022-09-27T08:59:52.732Z,23.90
2022-09-27T09:02:27.495Z,24.63
2022-09-27T09:05:07.282Z,24.32
2022-09-27T09:08:21.843Z,23.65
2022-09-27T09:11:25.109Z,23.04
2022-09-27T09:14:01.623Z,22.91
2022-09-27T09:17:09.121Z,23.06
2022-09-27T09:20:16.986Z,23.01
2022-09-27T09:23:10.910Z,23.70
2022-09-27T09:26:08.074Z,25.24
2022-09-27T09:29:06.970Z,25.21
2022-09-27T09:31:41.304Z,26.85
2022-09-27T09:34:41.506Z,28.98
2022-09-27T09:37:24.851Z,30.53
2022-09-27T09:40:04.231Z,31.56
2022-09-27T09:43:01.747Z,32.26
2022-09-27T09:45:35.894Z,34.04
2022-09-27T09:48:19.474Z,35.15
2022-09-27T09:50:56.617Z,35.02
2022-09-27T09:53:42.746Z,32.67
2022-09-27T09:56:33.188Z,30.05
2022-09-27T09:59:11.200Z,28.28
2022-09-27T10:01:44.996Z,26.85
2022-09-27T10:04:32.867Z,25.87
2022-09-27T10:07:01.685Z,25.52
2022-09-27T10:09:29.702Z,25.36
2022-09-27T10:11:57.334Z,25.89
2022-09-27T10:14:28.293Z,27.20
2022-09-27T10:17:06.549Z,27.88
2022-09-27T10:19:38.668Z,28.38
2022-09-27T10:22:16.069Z,27.87
2022-09-27T10:24:59.779Z,28.13
2022-09-27T10:27:28.376Z,31.23
2022-09-27T10:29:59.840Z,34.46
2022-09-27T10:32:35.855Z,35.10
2022-09-27T10:35:35.237Z,35.63
2022-09-27T10:38:32.124Z,36.16
2022-09-27T10:41:18.162Z,36.69
2022-09-27T10:43:45.448Z,36.30
2022-09-27T10:46:31.772Z,35.09
2022-09-27T10:49:31.314Z,34.08
2022-09-27T10:52:06.533Z,32.94
2022-09-27T10:54:39.773Z,32.58
2022-09-27T10:57:21.545Z,32.14
2022-09-27T10:59:57.900Z,31.69
2022-09-27T11:02:37.906Z,31.53
2022-09-27T11:05:29.813Z,30.66
2022-09-27T11:08:03.124Z,30.52
2022-09-27T11:10:37.727Z,29.69
2022-09-27T11:13:18.397Z,29.31
2022-09-27T11:16:29.993Z,28.23
2022-09-27T11:19:57.161Z,26.76
2022-09-27T11:22:55.077Z,25.60
2022-09-27T11:25:49.742Z,24.98
2022-09-27T11:28:49.001Z,24.46
2022-09-27T11:31:40.340Z,23.98
2022-09-27T11:34:41.551Z,23.60
2022-09-27T11:37:36.969Z,23.71
2022-09-27T11:40:27.251Z,23.75
2022-09-27T11:43:16.497Z,23.67
2022-09-27T11:46:38.726Z,23.42
2022-09-27T11:49:28.286Z,23.15
2022-09-27T11:52:51.546Z,22.92
2022-09-27T11:55:52.656Z,22.57
2022-09-27T11:58:44.817Z,22.37
2022-09-27T12:01:55.881Z,22.11
2022-09-27T12:05:01.968Z,21.94
2022-09-27T12:08:00.766Z,21.67
2022-09-27T12:10:28.034Z,21.76
2022-09-27T12:13:04.837Z,21.93
2022-09-27T12:15:41.113Z,21.88
2022-09-27T12:18:31.705Z,21.72
2022-09-27T12:21:03.309Z,21.83
2022-09-27T12:23:48.950Z,21.80
2022-09-27T12:26:25.564Z,21.87
2022-09-27T12:28:58.213Z,22.15
2022-09-27T12:31:47.247Z,22.66
2022-09-27T12:34:39.793Z,22.73
2022-09-27T12:37:19.937Z,22.18
2022-09-27T12:39:55.757Z,21.97
2022-09-27T12:42:46.716Z,21.65
2022-09-27T12:45:16.334Z,21.23
2022-09-27T12:48:25.708Z,21.01
2022-09-27T12:51:12.026Z,20.48
2022-09-27T12:54:13.139Z,20.35
2022-09-27T12:57:18.296Z,20.04
2022-09-27T13:00:04.834Z,19.70
2022-09-27T13:03:14.853Z,19.52
2022-09-27T13:06:20.693Z,19.22
2022-09-27T13:09:18.070Z,19.13
2022-09-27T13:11:56.330Z,18.89
2022-09-27T13:14:30.321Z,18.76
2022-09-27T13:17:00.729Z,18.75
2022-09-27T13:19:42.662Z,18.76
2022-09-27T13:22:27.017Z,18.92
2022-09-27T13:24:55.448Z,18.90
2022-09-27T13:27:23.236Z,18.87
2022-09-27T13:29:51.806Z,18.86
2022-09-27T13:32:21.454Z,18.83
2022-09-27T13:34:56.734Z,18.92
2022-09-27T13:37:45.779Z,19.07
2022-09-27T13:40:16.416Z,19.24
2022-09-27T13:42:49.461Z,19.27
2022-09-27T13:45:28.313Z,19.26
2022-09-27T13:47:59.477Z,19.11
2022-09-27T13:50:56.830Z,18.88
2022-09-27T13:53:40.114Z,18.73
2022-09-27T13:56:36.433Z,18.44
2022-09-27T13:59:10.345Z,18.28
2022-09-27T14:01:51.525Z,18.08
2022-09-27T14:04:27.768Z,17.91
2022-09-27T14:07:02.861Z,17.74
2022-09-27T14:09:40.459Z,17.58
2022-09-27T14:12:19.426Z,17.46
2022-09-27T14:14:50.072Z,17.31
2022-09-27T14:17:17.861Z,16.93
2022-09-27T14:19:46.470Z,16.53
2022-09-27T14:22:21.696Z,16.21
2022-09-27T14:24:55.440Z,15.89
2022-09-27T14:27:36.130Z,15.55
2022-09-27T14:30:29.209Z,15.24
2022-09-27T14:33:01.762Z,14.95
2022-09-27T14:35:51.045Z,14.91
2022-09-27T14:38:38.768Z,14.80
2022-09-27T14:41:09.071Z,14.76
2022-09-27T14:43:44.550Z,14.74
2022-09-27T14:46:34.196Z,14.59
2022-09-27T14:49:23.749Z,14.57
2022-09-27T14:51:56.315Z,14.61
2022-09-27T14:54:31.518Z,14.61
2022-09-27T14:57:00.376Z,14.62
2022-09-27T14:59:34.911Z,14.58
2022-09-27T15:02:17.672Z,14.64
2022-09-27T15:04:49.136Z,14.67
2022-09-27T15:07:17.267Z,14.60
2022-09-27T15:09:45.850Z,14.61
2022-09-27T15:12:24.960Z,14.61
2022-09-27T15:14:55.530Z,14.74
2022-09-27T15:17:22.952Z,14.79
2022-09-27T15:20:18.783Z,14.90
2022-09-27T15:22:47.493Z,14.96
2022-09-27T15:25:25.154Z,14.94
2022-09-27T15:27:56.560Z,14.91
2022-09-27T15:30:35.726Z,14.87
2022-09-27T15:33:04.623Z,14.91
2022-09-27T15:35:36.011Z,14.82
2022-09-27T15:38:33.324Z,14.66
2022-09-27T15:41:09.757Z,14.67
2022-09-27T15:43:50.221Z,14.65
2022-09-27T15:46:42.989Z,14.53
2022-09-27T15:49:31.506Z,14.48
2022-09-27T15:52:02.612Z,14.46
2022-09-27T15:54:36.468Z,14.47
2022-09-27T15:57:06.181Z,14.42
2022-09-27T15:59:36.478Z,14.37
2022-09-27T16:02:16.566Z,14.28
2022-09-27T16:04:45.024Z,14.28
2022-09-27T16:07:17.883Z,14.18
2022-09-27T16:09:46.909Z,14.10
2022-09-27T16:12:14.103Z,14.07
2022-09-27T16:14:41.313Z,14.09
2022-09-27T16:17:11.031Z,14.04
2022-09-27T16:19:39.466Z,14.03
2022-09-27T16:22:06.957Z,13.97
2022-09-27T16:24:40.505Z,13.94
2022-09-27T16:27:07.852Z,13.95
2022-09-27T16:29:35.127Z,13.89
2022-09-27T16:32:02.568Z,13.86
2022-09-27T16:34:30.016Z,13.74
2022-09-27T16:36:59.585Z,13.72
2022-09-27T16:39:29.930Z,13.69
2022-09-27T16:41:57.137Z,13.73
2022-09-27T16:44:24.451Z,13.66
2022-09-27T16:46:52.027Z,13.69
2022-09-27T16:49:37.629Z,13.66
2022-09-27T16:52:05.030Z,13.59
2022-09-27T16:54:32.438Z,13.60
2022-09-27T16:57:00.217Z,13.56
2022-09-27T16:59:28.078Z,13.57
2022-09-27T17:01:58.423Z,13.53
2022-09-27T17:04:28.428Z,13.53
2022-09-27T17:06:59.882Z,13.54
2022-09-27T17:09:27.453Z,13.49
2022-09-27T17:11:56.435Z,13.44
2022-09-27T17:14:24.000Z,13.46
2022-09-27T17:16:52.085Z,13.42
2022-09-27T17:19:19.853Z,13.43
2022-09-27T17:21:47.716Z,13.46
2022-09-27T17:24:15.517Z,13.44
2022-09-27T17:26:44.657Z,13.42
2022-09-27T17:29:13.543Z,13.43
2022-09-27T17:31:42.836Z,13.34
2022-09-27T17:34:13.715Z,13.44
2022-09-27T17:36:48.171Z,13.40
2022-09-27T17:39:19.351Z,13.38
2022-09-27T17:41:48.994Z,13.32
2022-09-27T17:44:21.290Z,13.40
2022-09-27T17:47:08.834Z,13.34
2022-09-27T17:49:54.827Z,13.22
2022-09-27T17:52:23.798Z,13.35
2022-09-27T17:54:54.489Z,13.37
2022-09-27T17:57:22.571Z,13.35
2022-09-27T17:59:51.160Z,13.33
2022-09-27T18:02:18.753Z,13.24
2022-09-27T18:04:46.342Z,13.26
2022-09-27T18:07:14.110Z,13.24
2022-09-27T18:09:42.075Z,13.21
2022-09-27T18:12:10.151Z,13.17
2022-09-27T18:14:37.522Z,13.18
2022-09-27T18:17:05.100Z,13.23
2022-09-27T18:19:32.413Z,13.24
2022-09-27T18:22:00.943Z,13.23
2022-09-27T18:24:28.716Z,13.17
2022-09-27T18:26:57.422Z,13.20
2022-09-27T18:29:24.949Z,13.17
2022-09-27T18:31:52.803Z,13.14
2022-09-27T18:34:20.389Z,13.13
2022-09-27T18:36:48.151Z,13.08
2022-09-27T18:39:19.812Z,13.12
2022-09-27T18:41:51.223Z,13.09
2022-09-27T18:44:19.828Z,13.10
2022-09-27T18:46:48.031Z,13.13
2022-09-27T18:49:17.639Z,13.15
2022-09-27T18:51:47.294Z,13.13
2022-09-27T18:54:19.424Z,13.16
2022-09-27T18:56:49.755Z,13.12
2022-09-27T18:59:18.187Z,13.11
2022-09-27T19:01:47.137Z,13.11
2022-09-27T19:04:27.086Z,13.08
2022-09-27T19:06:57.091Z,13.01
2022-09-27T19:09:27.052Z,13.01
2022-09-27T19:11:54.849Z,12.94
2022-09-27T19:14:23.812Z,12.99
2022-09-27T19:16:51.919Z,12.92
2022-09-27T19:19:20.572Z,12.98
2022-09-27T19:21:49.222Z,12.88
2022-09-27T19:24:19.060Z,12.90
2022-09-27T19:26:46.678Z,12.86
2022-09-27T19:29:14.992Z,12.86
2022-09-27T19:31:42.992Z,12.84
2022-09-27T19:34:11.440Z,12.85
2022-09-27T19:36:38.863Z,12.85
2022-09-27T19:39:06.714Z,12.76
2022-09-27T19:41:34.123Z,12.73
2022-09-27T19:44:01.951Z,12.81
2022-09-27T19:46:29.634Z,12.77
2022-09-27T19:48:57.125Z,12.73
2022-09-27T19:51:27.169Z,12.75
2022-09-27T19:53:55.604Z,12.69
2022-09-27T19:56:24.780Z,12.73
2022-09-27T19:58:52.612Z,12.68
2022-09-27T20:01:23.586Z,12.73
2022-09-27T20:03:55.822Z,12.71
2022-09-27T20:06:23.748Z,12.77
2022-09-27T20:08:52.696Z,12.78
2022-09-27T20:11:23.431Z,12.81
2022-09-27T20:13:53.223Z,12.84
2022-09-27T20:16:24.540Z,12.82
2022-09-27T20:18:58.171Z,12.72
2022-09-27T20:21:30.061Z,12.79
2022-09-27T20:23:58.307Z,12.79
2022-09-27T20:26:28.568Z,12.79
2022-09-27T20:28:59.254Z,12.76
2022-09-27T20:32:02.890Z,12.73
2022-09-27T20:34:28.903Z,12.75
2022-09-27T20:36:56.167Z,12.72
2022-09-27T20:39:24.411Z,12.70
2022-09-27T20:41:54.872Z,12.73
2022-09-27T20:44:22.227Z,12.69
2022-09-27T20:46:49.555Z,12.65
2022-09-27T20:49:19.447Z,12.61
2022-09-27T20:51:51.551Z,12.60
2022-09-27T20:54:19.166Z,12.52
2022-09-27T20:56:48.722Z,12.52
2022-09-27T20:59:20.402Z,12.49
2022-09-27T21:01:51.401Z,12.43
2022-09-27T21:04:21.524Z,12.46
2022-09-27T21:06:49.231Z,12.39
2022-09-27T21:09:20.027Z,12.41
2022-09-27T21:11:49.293Z,12.42
2022-09-27T21:14:16.863Z,12.43
2022-09-27T21:16:44.576Z,12.35
2022-09-27T21:19:12.037Z,12.40
2022-09-27T21:21:39.468Z,12.33
2022-09-27T21:24:07.026Z,12.34
2022-09-27T21:26:35.162Z,12.37
2022-09-27T21:29:09.015Z,12.32
2022-09-27T21:31:38.167Z,12.31
2022-09-27T21:34:06.591Z,12.31
2022-09-27T21:36:38.807Z,12.32
2022-09-27T21:39:09.074Z,12.32
2022-09-27T21:41:39.085Z,12.27
2022-09-27T21:44:10.653Z,12.28
2022-09-27T21:46:41.808Z,12.31
2022-09-27T21:49:11.204Z,12.26
2022-09-27T21:51:42.448Z,12.28
2022-09-27T21:54:14.767Z,12.31
2022-09-27T21:56:44.573Z,12.32
2022-09-27T21:59:15.643Z,12.32
2022-09-27T22:01:46.088Z,12.29
2022-09-27T22:04:19.634Z,12.19
2022-09-27T22:06:47.456Z,12.24
2022-09-27T22:09:17.353Z,12.23
2022-09-27T22:11:47.636Z,12.25
2022-09-27T22:14:18.943Z,12.16
2022-09-27T22:16:47.798Z,12.17
2022-09-27T22:19:16.542Z,12.17
2022-09-27T22:21:44.150Z,12.11
2022-09-27T22:24:17.972Z,12.13
2022-09-27T22:26:53.444Z,12.12
2022-09-27T22:29:21.326Z,12.08
2022-09-27T22:31:48.921Z,12.07
2022-09-27T22:34:20.704Z,12.05
2022-09-27T22:36:47.975Z,12.00
2022-09-27T22:39:15.488Z,11.97
2022-09-27T22:41:42.700Z,12.02
2022-09-27T22:44:09.895Z,12.03
2022-09-27T22:46:37.394Z,11.95
2022-09-27T22:49:04.683Z,11.96
2022-09-27T22:51:31.958Z,11.95
2022-09-27T22:53:59.392Z,11.95
2022-09-27T22:56:26.651Z,12.02
2022-09-27T22:58:53.997Z,11.93
2022-09-27T23:01:24.886Z,11.93
2022-09-27T23:03:54.336Z,11.91
2022-09-27T23:06:23.201Z,11.86
2022-09-27T23:08:53.700Z,11.85
2022-09-27T23:11:23.315Z,11.77
2022-09-27T23:13:52.104Z,11.77
2022-09-27T23:16:24.780Z,11.76
2022-09-27T23:18:57.027Z,11.75
2022-09-27T23:21:26.415Z,11.66
2022-09-27T23:23:59.899Z,11.61
2022-09-27T23:26:29.310Z,11.56
2022-09-27T23:28:59.994Z,11.53
2022-09-27T23:31:31.440Z,11.52
2022-09-27T23:34:03.542Z,11.49
2022-09-27T23:36:31.032Z,11.46
2022-09-27T23:39:00.986Z,11.54
2022-09-27T23:41:28.656Z,11.54
2022-09-27T23:43:57.646Z,11.60
2022-09-27T23:46:25.323Z,11.62
2022-09-27T23:48:55.593Z,11.61
2022-09-27T23:51:22.789Z,11.64
2022-09-27T23:53:50.134Z,11.65
2022-09-27T23:56:17.757Z,11.66
2022-09-27T23:58:46.393Z,11.65
